createdAt,value
2023-05-19T00:00:30.769Z,2.38
2023-05-19T00:02:58.321Z,2.90
2023-05-19T00:05:25.487Z,2.40
2023-05-19T00:07:54.977Z,2.02
2023-05-19T00:10:22.495Z,2.57
2023-05-19T00:12:53.191Z,2.31
2023-05-19T00:15:21.261Z,2.91
2023-05-19T00:17:48.039Z,2.33
2023-05-19T00:20:17.869Z,2.19
2023-05-19T00:22:44.660Z,2.57
2023-05-19T00:25:11.451Z,2.26
2023-05-19T00:27:38.283Z,2.11
2023-05-19T00:30:08.261Z,2.83
2023-05-19T00:32:35.406Z,4.23
2023-05-19T00:35:02.329Z,3.32
2023-05-19T00:37:31.827Z,2.42
2023-05-19T00:40:00.348Z,1.91
2023-05-19T00:42:27.297Z,2.83
2023-05-19T00:44:54.172Z,2.25
2023-05-19T00:47:22.396Z,2.01
2023-05-19T00:49:49.281Z,2.15
2023-05-19T00:52:16.334Z,2.57
2023-05-19T00:54:44.306Z,2.33
2023-05-19T00:57:11.572Z,2.38
2023-05-19T00:59:38.875Z,2.51
2023-05-19T01:02:05.752Z,2.26
2023-05-19T01:04:36.647Z,3.12
2023-05-19T01:07:04.484Z,3.43
2023-05-19T01:09:31.890Z,3.15
2023-05-19T01:11:59.260Z,3.21
2023-05-19T01:14:26.395Z,2.51
2023-05-19T01:17:00.581Z,2.24
2023-05-19T01:19:52.823Z,2.47
2023-05-19T01:22:32.214Z,2.77
2023-05-19T01:25:20.292Z,4.12
2023-05-19T01:28:23.027Z,4.75
2023-05-19T01:30:56.304Z,4.77
2023-05-19T01:33:24.807Z,4.48
2023-05-19T01:35:54.242Z,3.80
2023-05-19T01:38:21.984Z,3.21
2023-05-19T01:40:50.029Z,3.13
2023-05-19T01:43:20.530Z,3.42
2023-05-19T01:45:48.823Z,4.82
2023-05-19T01:48:18.208Z,4.46
2023-05-19T01:50:45.655Z,4.16
2023-05-19T01:53:12.603Z,3.97
2023-05-19T01:55:44.337Z,3.89
2023-05-19T01:58:18.571Z,4.55
2023-05-19T02:03:30.256Z,4.37
2023-05-19T02:06:07.117Z,4.15
2023-05-19T02:08:41.706Z,4.39
2023-05-19T02:11:19.636Z,3.73
2023-05-19T02:13:50.345Z,3.79
2023-05-19T02:16:17.798Z,6.53
2023-05-19T02:18:46.338Z,5.48
2023-05-19T02:21:13.172Z,5.86
2023-05-19T02:23:40.093Z,5.77
2023-05-19T02:26:08.542Z,5.03
2023-05-19T02:28:35.355Z,4.88
2023-05-19T02:31:02.370Z,5.51
2023-05-19T02:33:29.130Z,6.46
2023-05-19T02:35:58.436Z,5.97
2023-05-19T02:38:25.342Z,5.10
2023-05-19T02:40:52.455Z,5.49
2023-05-19T02:43:19.443Z,5.24
2023-05-19T02:45:46.282Z,5.23
2023-05-19T02:48:13.143Z,5.60
2023-05-19T02:50:40.122Z,5.61
2023-05-19T02:53:08.431Z,7.28
2023-05-19T02:55:35.304Z,6.14
2023-05-19T02:58:02.137Z,5.74
2023-05-19T03:00:29.044Z,5.76
2023-05-19T03:02:55.959Z,5.78
2023-05-19T03:05:23.036Z,5.44
2023-05-19T03:07:49.944Z,5.41
2023-05-19T03:10:18.386Z,5.06
2023-05-19T03:12:45.153Z,4.87
2023-05-19T03:15:11.950Z,4.48
2023-05-19T03:17:38.865Z,5.02
2023-05-19T03:20:07.672Z,4.45
2023-05-19T03:22:35.002Z,4.48
2023-05-19T03:25:02.531Z,4.32
2023-05-19T03:27:30.992Z,5.20
2023-05-19T03:29:57.971Z,4.50
2023-05-19T03:32:25.484Z,4.01
2023-05-19T03:34:52.827Z,4.70
2023-05-19T03:37:19.753Z,4.46
2023-05-19T03:39:47.104Z,4.74
2023-05-19T03:42:13.937Z,5.14
2023-05-19T03:44:42.095Z,4.98
2023-05-19T03:47:08.881Z,4.97
2023-05-19T03:49:35.642Z,5.09
2023-05-19T03:52:03.268Z,4.53
2023-05-19T03:54:30.511Z,4.21
2023-05-19T03:56:57.428Z,5.33
2023-05-19T03:59:24.300Z,4.31
2023-05-19T04:01:52.630Z,4.28
2023-05-19T04:04:19.875Z,4.19
2023-05-19T04:06:46.715Z,3.76
2023-05-19T04:09:14.935Z,4.35
2023-05-19T04:11:42.576Z,4.06
2023-05-19T04:14:09.736Z,4.58
2023-05-19T04:16:36.817Z,5.35
2023-05-19T04:19:05.017Z,4.99
2023-05-19T04:21:31.822Z,5.61
2023-05-19T04:23:58.728Z,5.78
2023-05-19T04:26:25.686Z,6.54
2023-05-19T04:28:52.661Z,6.13
2023-05-19T04:31:19.873Z,5.11
2023-05-19T04:33:46.727Z,5.70
2023-05-19T04:36:14.972Z,5.10
2023-05-19T04:38:41.765Z,5.59
2023-05-19T04:41:08.850Z,5.79
2023-05-19T04:43:36.138Z,5.17
2023-05-19T04:46:03.433Z,5.51
2023-05-19T04:48:30.237Z,5.56
2023-05-19T04:50:57.016Z,4.85
2023-05-19T04:53:25.309Z,4.58
2023-05-19T04:55:52.084Z,4.81
2023-05-19T04:58:19.008Z,4.77
2023-05-19T05:00:46.313Z,4.59
2023-05-19T05:03:13.447Z,4.90
2023-05-19T05:05:40.372Z,4.85
2023-05-19T05:08:07.163Z,4.15
2023-05-19T05:10:35.487Z,4.03
2023-05-19T05:13:02.970Z,4.56
2023-05-19T05:15:30.743Z,6.02
2023-05-19T05:17:58.256Z,4.56
2023-05-19T05:20:26.180Z,4.45
2023-05-19T05:22:53.767Z,4.57
2023-05-19T05:25:21.438Z,4.30
2023-05-19T05:27:49.676Z,3.88
2023-05-19T05:30:17.518Z,5.59
2023-05-19T05:32:44.892Z,4.56
2023-05-19T05:35:13.820Z,4.39
2023-05-19T05:37:40.565Z,3.69
2023-05-19T05:40:08.750Z,2.94
2023-05-19T05:42:35.619Z,3.06
2023-05-19T05:45:04.351Z,3.32
2023-05-19T05:47:32.148Z,3.46
2023-05-19T05:49:59.500Z,3.69
2023-05-19T05:52:31.705Z,3.85
2023-05-19T05:54:59.802Z,3.89
2023-05-19T05:57:27.192Z,4.06
2023-05-19T05:59:54.829Z,4.12
2023-05-19T06:02:23.148Z,3.71
2023-05-19T06:04:50.351Z,3.52
2023-05-19T06:07:17.117Z,3.53
2023-05-19T06:09:43.874Z,3.86
2023-05-19T06:12:10.706Z,3.60
2023-05-19T06:14:37.567Z,3.90
2023-05-19T06:17:05.515Z,4.13
2023-05-19T06:19:34.007Z,3.76
2023-05-19T06:22:00.836Z,3.64
2023-05-19T06:24:27.739Z,3.59
2023-05-19T06:26:54.942Z,3.16
2023-05-19T06:29:22.177Z,3.11
2023-05-19T06:31:50.304Z,3.73
2023-05-19T06:34:17.157Z,3.35
2023-05-19T06:36:45.458Z,3.19
2023-05-19T06:39:12.421Z,3.09
2023-05-19T06:41:39.279Z,3.54
2023-05-19T06:44:07.690Z,3.60
2023-05-19T06:46:35.311Z,4.20
2023-05-19T06:49:03.145Z,3.70
2023-05-19T06:51:30.483Z,4.36
2023-05-19T06:53:59.215Z,4.42
2023-05-19T06:56:26.093Z,4.22
2023-05-19T06:58:52.996Z,3.34
2023-05-19T07:01:19.857Z,4.52
2023-05-19T07:03:46.934Z,3.73
2023-05-19T07:06:14.213Z,3.03
2023-05-19T07:08:41.601Z,4.22
2023-05-19T07:11:10.957Z,5.13
2023-05-19T07:13:39.442Z,4.30
2023-05-19T07:16:07.063Z,4.16
2023-05-19T07:18:34.583Z,4.07
2023-05-19T07:21:01.479Z,3.79
2023-05-19T07:23:28.415Z,4.05
2023-05-19T07:25:56.073Z,3.04
2023-05-19T07:28:25.436Z,3.24
2023-05-19T07:30:52.401Z,4.15
2023-05-19T07:33:19.404Z,4.32
2023-05-19T07:35:48.824Z,3.63
2023-05-19T07:38:23.308Z,2.86
2023-05-19T07:40:50.631Z,2.65
2023-05-19T07:43:17.468Z,3.19
2023-05-19T07:45:45.774Z,3.12
2023-05-19T07:48:12.668Z,2.64
2023-05-19T07:50:40.458Z,2.96
2023-05-19T07:53:07.575Z,2.44
2023-05-19T07:55:34.360Z,2.66
2023-05-19T07:58:01.320Z,2.27
2023-05-19T08:00:28.170Z,2.43
2023-05-19T08:02:57.299Z,3.11
2023-05-19T08:05:24.462Z,3.59
2023-05-19T08:07:51.908Z,2.61
2023-05-19T08:10:19.357Z,2.80
2023-05-19T08:12:47.425Z,3.11
2023-05-19T08:15:15.443Z,2.56
2023-05-19T08:17:42.409Z,2.22
2023-05-19T08:20:11.149Z,2.69
2023-05-19T08:22:38.400Z,2.33
2023-05-19T08:25:06.750Z,3.19
2023-05-19T08:27:33.729Z,3.09
2023-05-19T08:30:00.694Z,3.50
2023-05-19T08:32:27.590Z,3.30
2023-05-19T08:34:54.430Z,4.21
2023-05-19T08:37:22.654Z,4.22
2023-05-19T08:39:49.440Z,3.16
2023-05-19T08:42:16.443Z,4.15
2023-05-19T08:44:43.347Z,3.55
2023-05-19T08:47:11.015Z,3.58
2023-05-19T08:49:44.142Z,3.38
2023-05-19T08:52:21.937Z,3.60
2023-05-19T08:55:02.725Z,3.43
2023-05-19T08:57:30.029Z,3.12
2023-05-19T08:59:58.279Z,2.72
2023-05-19T09:02:25.800Z,2.81
2023-05-19T09:04:53.288Z,3.36
2023-05-19T09:07:21.158Z,3.58
2023-05-19T09:09:49.285Z,3.21
2023-05-19T09:12:18.664Z,2.70
2023-05-19T09:14:47.391Z,2.69
2023-05-19T09:17:14.739Z,2.70
2023-05-19T09:19:43.420Z,2.63
2023-05-19T09:22:10.237Z,2.26
2023-05-19T09:24:37.278Z,2.62
2023-05-19T09:27:04.665Z,3.15
2023-05-19T09:29:32.827Z,2.74
2023-05-19T09:31:59.940Z,2.32
2023-05-19T09:34:27.909Z,1.64
2023-05-19T09:36:55.103Z,1.38
2023-05-19T09:39:23.535Z,1.98
2023-05-19T09:41:51.802Z,2.53
2023-05-19T09:44:22.489Z,2.47
2023-05-19T09:46:51.544Z,3.04
2023-05-19T09:49:22.043Z,2.32
2023-05-19T09:51:54.000Z,2.61
2023-05-19T09:54:21.442Z,3.14
2023-05-19T09:56:51.932Z,2.38
2023-05-19T09:59:20.030Z,2.10
2023-05-19T10:01:47.636Z,2.05
2023-05-19T10:04:16.769Z,1.39
2023-05-19T10:06:44.419Z,1.10
2023-05-19T10:09:11.574Z,0.77
2023-05-19T10:11:39.625Z,0.75
2023-05-19T10:14:08.064Z,0.88
2023-05-19T10:16:36.325Z,1.57
2023-05-19T10:19:04.611Z,2.44
2023-05-19T10:21:32.905Z,2.78
2023-05-19T10:23:59.923Z,2.35
2023-05-19T10:26:27.611Z,2.07
2023-05-19T10:28:54.688Z,1.60
2023-05-19T10:31:24.323Z,1.43
2023-05-19T10:34:07.441Z,1.49
2023-05-19T10:36:44.835Z,1.46
2023-05-19T10:39:17.699Z,1.80
2023-05-19T10:42:04.100Z,1.56
2023-05-19T10:44:44.605Z,1.68
2023-05-19T10:47:11.565Z,1.47
2023-05-19T10:49:39.511Z,1.49
2023-05-19T10:52:20.052Z,1.18
2023-05-19T10:54:46.840Z,1.09
2023-05-19T10:57:14.978Z,1.02
2023-05-19T10:59:42.064Z,1.02
2023-05-19T11:02:09.220Z,0.95
2023-05-19T11:04:45.239Z,0.89
2023-05-19T11:07:17.396Z,2.14
2023-05-19T11:09:48.801Z,1.70
2023-05-19T11:12:20.265Z,1.16
2023-05-19T11:14:47.037Z,1.08
2023-05-19T11:17:15.670Z,0.70
2023-05-19T11:19:53.008Z,0.56
2023-05-19T11:22:23.499Z,0.53
2023-05-19T11:24:50.445Z,0.66
2023-05-19T11:27:22.832Z,1.52
2023-05-19T11:29:50.464Z,1.10
2023-05-19T11:32:20.117Z,1.26
2023-05-19T11:34:48.549Z,1.23
2023-05-19T11:37:15.646Z,1.74
2023-05-19T11:39:46.118Z,1.81
2023-05-19T11:42:13.093Z,2.28
2023-05-19T11:44:40.272Z,2.40
2023-05-19T11:47:07.422Z,1.74
2023-05-19T11:49:34.407Z,1.68
2023-05-19T11:52:01.274Z,2.74
2023-05-19T11:54:32.723Z,2.12
2023-05-19T11:57:02.320Z,2.85
2023-05-19T11:59:34.183Z,2.63
2023-05-19T12:02:03.706Z,2.05
2023-05-19T12:04:31.062Z,1.53
2023-05-19T12:06:58.013Z,1.95
2023-05-19T17:03:25.937Z,2.55
2023-05-19T17:05:52.783Z,3.17
2023-05-19T17:08:19.565Z,3.67
2023-05-19T17:10:47.695Z,3.71
2023-05-19T17:13:14.494Z,3.38
2023-05-19T17:15:43.180Z,3.40
2023-05-19T17:18:11.176Z,2.92
2023-05-19T17:20:39.359Z,2.71
2023-05-19T17:23:06.134Z,3.12
2023-05-19T17:25:33.163Z,3.08
2023-05-19T17:28:00.093Z,3.06
2023-05-19T17:30:26.923Z,3.54
2023-05-19T17:32:54.259Z,3.44
2023-05-19T17:35:21.047Z,3.48
2023-05-19T17:37:51.772Z,2.82
2023-05-19T17:40:19.089Z,3.95
2023-05-19T17:42:45.918Z,3.25
2023-05-19T17:45:12.732Z,2.73
2023-05-19T17:47:39.629Z,2.83
2023-05-19T17:50:07.568Z,2.85
2023-05-19T17:52:34.933Z,3.38
2023-05-19T17:55:04.061Z,2.94
2023-05-19T17:57:32.232Z,3.84
2023-05-19T17:59:59.607Z,3.36
2023-05-19T18:02:27.260Z,3.17
2023-05-19T18:04:54.780Z,3.24
2023-05-19T18:07:24.549Z,3.85
2023-05-19T18:09:51.839Z,3.74
2023-05-19T18:12:20.016Z,4.14
2023-05-19T18:14:46.997Z,3.94
2023-05-19T18:17:14.384Z,4.24
2023-05-19T18:19:41.561Z,3.72
2023-05-19T18:22:08.381Z,3.25
2023-05-19T18:24:35.302Z,4.45
2023-05-19T18:27:02.271Z,3.68
2023-05-19T18:29:33.475Z,3.55
2023-05-19T18:32:00.461Z,3.69
2023-05-19T18:34:29.736Z,3.97
2023-05-19T18:36:57.009Z,5.21
2023-05-19T18:39:24.203Z,4.65
2023-05-19T18:41:51.467Z,4.23
2023-05-19T18:44:19.978Z,4.92
2023-05-19T18:46:49.837Z,4.93
2023-05-19T18:49:17.177Z,4.62
2023-05-19T18:51:44.118Z,4.53
2023-05-19T18:54:11.037Z,4.66
2023-05-19T18:56:38.185Z,4.04
2023-05-19T18:59:05.177Z,3.79
2023-05-19T19:01:32.406Z,4.11
2023-05-19T19:04:00.917Z,4.65
2023-05-19T19:06:27.790Z,4.75
2023-05-19T19:08:54.740Z,4.50
2023-05-19T19:11:21.495Z,4.23
2023-05-19T19:13:48.402Z,3.96
2023-05-19T19:16:15.192Z,3.14
2023-05-19T19:18:42.201Z,2.94
2023-05-19T19:21:10.497Z,3.32
2023-05-19T19:23:37.864Z,3.27
2023-05-19T19:26:04.636Z,3.52
2023-05-19T19:28:31.496Z,3.48
2023-05-19T19:30:58.313Z,2.87
2023-05-19T19:33:25.181Z,2.85
2023-05-19T19:35:51.986Z,2.75
2023-05-19T19:38:21.002Z,3.36
2023-05-19T19:40:47.834Z,2.82
2023-05-19T19:43:14.633Z,2.42
2023-05-19T19:45:41.373Z,2.00
2023-05-19T19:48:08.299Z,2.30
2023-05-19T19:50:35.235Z,3.88
2023-05-19T19:53:02.149Z,2.97
2023-05-19T19:55:30.360Z,2.71
2023-05-19T19:57:57.203Z,2.26
2023-05-19T20:00:24.199Z,2.83
2023-05-19T20:03:04.346Z,3.38
2023-05-19T20:05:32.608Z,2.76
2023-05-19T20:07:59.561Z,2.37
2023-05-19T20:10:26.399Z,3.77
2023-05-19T20:12:54.653Z,2.99
2023-05-19T20:15:21.416Z,3.08
2023-05-19T20:17:48.237Z,2.41
2023-05-19T20:20:15.144Z,3.09
2023-05-19T20:22:42.170Z,2.77
2023-05-19T20:25:09.541Z,3.15
2023-05-19T20:27:36.450Z,2.80
2023-05-19T20:30:05.532Z,3.28
2023-05-19T20:32:32.477Z,2.79
2023-05-19T20:34:59.273Z,3.24
2023-05-19T20:37:26.142Z,2.81
2023-05-19T20:39:52.966Z,3.10
2023-05-19T20:42:19.812Z,3.68
2023-05-19T20:44:46.575Z,3.17
2023-05-19T20:47:14.759Z,3.32
2023-05-19T20:49:41.553Z,2.80
2023-05-19T20:52:08.832Z,2.84
2023-05-19T20:54:36.259Z,3.54
2023-05-19T20:57:03.822Z,2.91
2023-05-19T20:59:30.888Z,3.54
2023-05-19T21:01:57.672Z,3.45
2023-05-19T21:04:25.936Z,2.95
2023-05-19T21:06:52.779Z,3.11
2023-05-19T21:09:19.640Z,3.01
2023-05-19T21:11:46.466Z,3.94
2023-05-19T21:14:13.303Z,5.68
2023-05-19T21:16:40.295Z,4.46
2023-05-19T21:19:07.182Z,3.63
2023-05-19T21:21:35.453Z,3.46
2023-05-19T21:24:02.199Z,2.82
2023-05-19T21:26:28.958Z,2.85
2023-05-19T21:28:55.772Z,2.65
2023-05-19T21:31:22.719Z,3.54
2023-05-19T21:33:49.698Z,4.58
2023-05-19T21:36:16.669Z,5.94
2023-05-19T21:38:45.137Z,5.92
2023-05-19T21:41:11.941Z,6.44
2023-05-19T21:43:38.763Z,5.71
2023-05-19T21:46:05.668Z,3.62
2023-05-19T21:48:32.482Z,3.00
2023-05-19T21:50:59.358Z,2.70
2023-05-19T21:53:26.189Z,2.44
2023-05-19T21:55:54.500Z,4.98
2023-05-19T21:58:21.331Z,4.78
2023-05-19T22:00:49.191Z,5.55
2023-05-19T22:03:16.150Z,5.89
2023-05-19T22:05:47.762Z,5.82
2023-05-19T22:08:14.790Z,5.96
2023-05-19T22:10:41.672Z,6.08
2023-05-19T22:13:09.853Z,5.52
2023-05-19T22:15:37.990Z,7.05
2023-05-19T22:18:05.158Z,6.62
2023-05-19T22:20:32.089Z,6.41
2023-05-19T22:22:59.158Z,7.41
2023-05-19T22:25:25.999Z,7.48
2023-05-19T22:27:53.673Z,8.17
2023-05-19T22:30:22.137Z,9.02
2023-05-19T22:32:49.072Z,7.81
2023-05-19T22:35:15.918Z,7.92
2023-05-19T22:37:42.758Z,8.26
2023-05-19T22:40:10.151Z,7.03
2023-05-19T22:42:36.946Z,7.05
2023-05-19T22:45:04.340Z,7.25
2023-05-19T22:47:32.515Z,8.36
2023-05-19T22:49:59.375Z,7.67
2023-05-19T22:52:26.221Z,7.59
2023-05-19T22:54:53.078Z,7.67
2023-05-19T22:57:19.886Z,7.68
2023-05-19T22:59:46.736Z,7.01
2023-05-19T23:02:13.636Z,7.34
2023-05-19T23:04:41.799Z,8.18
2023-05-19T23:07:08.557Z,9.18
2023-05-19T23:09:35.381Z,7.69
2023-05-19T23:12:02.255Z,6.56
2023-05-19T23:14:29.055Z,7.28
2023-05-19T23:16:55.918Z,7.29
2023-05-19T23:19:22.950Z,6.53
2023-05-19T23:21:51.297Z,5.61
2023-05-19T23:24:18.154Z,5.66
2023-05-19T23:26:45.239Z,5.32
2023-05-19T23:29:12.456Z,6.13
2023-05-19T23:31:40.321Z,5.37
2023-05-19T23:34:07.481Z,6.62
2023-05-19T23:36:34.258Z,7.03
2023-05-19T23:39:02.668Z,7.29
2023-05-19T23:41:29.441Z,6.65
2023-05-19T23:43:56.277Z,6.30
2023-05-19T23:46:23.149Z,7.34
2023-05-19T23:48:50.045Z,7.07
2023-05-19T23:51:16.910Z,7.68
2023-05-19T23:53:43.671Z,7.28
2023-05-19T23:56:11.883Z,7.09
2023-05-19T23:58:38.654Z,8.21
